Terminal Aerodrome Forecast
Issued by NWS Pocatello, ID

Home | Current Version | Previous Version | Text Only | Print | Product List | Glossary On
Versions: 1 2 3 4 5 6 7 8 9 10 11 12 13 14
145
FTUS45 KPIH 190520
TAFPIH
TAF
KPIH 190520Z 1906/2006 20009KT P6SM SKC
     FM191800 26011G21KT P6SM FEW200
     FM200300 20009KT P6SM FEW200=

USA.gov is the U.S. government's official web portal to all federal, state and local government web resources and services.